createdAt,value
2017-08-11T00:01:19.149Z,8.10
2017-08-11T00:03:47.545Z,6.90
2017-08-11T00:06:15.957Z,8.63
2017-08-11T00:08:44.386Z,7.80
2017-08-11T00:11:12.870Z,8.50
2017-08-11T00:13:41.363Z,9.40
2017-08-11T00:16:09.814Z,7.40
2017-08-11T00:18:38.226Z,7.93
2017-08-11T00:21:06.627Z,8.80
2017-08-11T00:23:35.065Z,8.80
2017-08-11T00:26:03.491Z,8.73
2017-08-11T00:28:31.904Z,8.40
2017-08-11T00:31:00.323Z,7.83
2017-08-11T00:33:28.755Z,8.37
2017-08-11T00:35:57.170Z,9.00
2017-08-11T00:38:25.573Z,7.97
2017-08-11T00:40:54.088Z,8.43
2017-08-11T00:43:22.545Z,8.40
2017-08-11T00:45:50.981Z,7.30
2017-08-11T00:48:19.450Z,8.20
2017-08-11T00:50:47.854Z,9.87
2017-08-11T00:53:16.273Z,6.47
2017-08-11T00:55:44.705Z,9.10
2017-08-11T00:58:13.141Z,8.60
2017-08-11T01:00:41.577Z,7.63
2017-08-11T01:03:10.034Z,9.43
2017-08-11T01:05:38.474Z,8.33
2017-08-11T01:08:06.897Z,9.00
2017-08-11T01:10:35.325Z,8.30
2017-08-11T01:13:03.757Z,8.93
2017-08-11T01:15:32.163Z,7.80
2017-08-11T01:18:00.569Z,8.17
2017-08-11T01:20:29.003Z,8.87
2017-08-11T01:22:57.418Z,9.10
2017-08-11T01:25:25.842Z,9.27
2017-08-11T01:27:54.254Z,8.97
2017-08-11T01:30:22.654Z,8.90
2017-08-11T01:32:51.069Z,9.83
2017-08-11T01:35:19.476Z,9.53
2017-08-11T01:37:47.945Z,7.80
2017-08-11T01:40:16.378Z,8.37
2017-08-11T01:42:44.785Z,9.00
2017-08-11T01:45:13.214Z,9.07
2017-08-11T01:47:41.619Z,8.33
2017-08-11T01:50:10.059Z,9.03
2017-08-11T01:52:38.502Z,9.23
2017-08-11T01:55:06.593Z,8.30
2017-08-11T01:57:35.007Z,8.23
2017-08-11T02:00:03.448Z,7.83
2017-08-11T02:02:32.655Z,10.80
2017-08-11T02:05:01.116Z,8.90
2017-08-11T02:07:29.218Z,9.47
2017-08-11T02:09:57.758Z,8.57
2017-08-11T02:12:26.282Z,10.93
2017-08-11T02:14:54.710Z,8.97
2017-08-11T02:17:23.169Z,8.30
2017-08-11T02:19:51.635Z,10.30
2017-08-11T02:22:20.092Z,9.30
2017-08-11T02:24:48.533Z,10.03
2017-08-11T02:27:16.971Z,8.43
2017-08-11T02:29:45.397Z,9.13
2017-08-11T02:32:13.837Z,8.47
2017-08-11T02:34:42.302Z,9.43
2017-08-11T02:37:11.507Z,9.57
2017-08-11T02:39:39.933Z,10.17
2017-08-11T02:42:08.383Z,10.23
2017-08-11T02:44:36.826Z,9.43
2017-08-11T02:47:05.250Z,8.90
2017-08-11T02:49:33.718Z,9.43
2017-08-11T02:52:02.138Z,9.47
2017-08-11T02:54:30.569Z,11.27
2017-08-11T02:56:59.768Z,9.43
2017-08-11T02:59:28.200Z,10.20
2017-08-11T03:01:56.646Z,9.77
2017-08-11T03:04:25.123Z,9.10
2017-08-11T03:06:53.557Z,8.40
2017-08-11T03:09:21.974Z,9.83
2017-08-11T03:11:50.418Z,9.23
2017-08-11T03:14:18.838Z,11.03
2017-08-11T03:16:47.294Z,9.00
2017-08-11T03:19:15.738Z,10.83
2017-08-11T03:21:44.169Z,10.20
2017-08-11T03:24:12.582Z,9.00
2017-08-11T03:26:41.018Z,9.20
2017-08-11T03:29:09.476Z,10.77
2017-08-11T03:31:37.889Z,8.10
2017-08-11T03:34:06.306Z,8.77
2017-08-11T03:36:34.753Z,11.63
2017-08-11T03:39:03.167Z,11.67
2017-08-11T03:41:31.579Z,12.47
2017-08-11T03:44:00.005Z,10.10
2017-08-11T03:46:28.409Z,10.37
2017-08-11T03:48:57.252Z,9.30
2017-08-11T03:51:25.656Z,12.50
2017-08-11T03:53:54.062Z,10.17
2017-08-11T03:56:22.490Z,10.83
2017-08-11T03:58:50.910Z,11.50
2017-08-11T04:01:20.136Z,10.50
2017-08-11T04:03:48.543Z,10.60
2017-08-11T04:06:16.952Z,11.10
2017-08-11T04:08:45.377Z,8.93
2017-08-11T04:11:13.833Z,9.17
2017-08-11T04:13:42.241Z,11.80
2017-08-11T04:16:10.653Z,13.43
2017-08-11T04:18:39.093Z,14.07
2017-08-11T04:21:07.513Z,12.50
2017-08-11T04:23:36.065Z,13.17
2017-08-11T04:26:04.502Z,12.30
2017-08-11T04:28:32.918Z,12.10
2017-08-11T04:31:01.367Z,11.83
2017-08-11T04:33:29.809Z,12.07
2017-08-11T04:35:58.258Z,11.20
2017-08-11T04:38:26.707Z,11.50
2017-08-11T04:40:55.133Z,12.13
2017-08-11T04:43:23.601Z,12.00
2017-08-11T04:45:52.060Z,10.83
2017-08-11T04:48:20.486Z,11.10
2017-08-11T04:50:48.931Z,11.00
2017-08-11T04:53:17.359Z,12.00
2017-08-11T04:55:45.795Z,12.70
2017-08-11T04:58:14.245Z,11.53
2017-08-11T05:00:42.701Z,13.10
2017-08-11T05:03:11.140Z,12.90
2017-08-11T05:05:39.618Z,11.87
2017-08-11T05:08:08.072Z,12.40
2017-08-11T05:10:36.533Z,13.07
2017-08-11T05:13:04.986Z,11.37
2017-08-11T05:15:33.411Z,10.20
2017-08-11T05:18:01.833Z,9.60
2017-08-11T05:20:30.237Z,11.57
2017-08-11T05:22:58.699Z,12.03
2017-08-11T05:25:27.164Z,10.63
2017-08-11T05:27:55.589Z,9.97
2017-08-11T05:30:24.014Z,11.27
2017-08-11T05:32:52.457Z,9.83
2017-08-11T05:35:20.926Z,11.27
2017-08-11T05:37:49.422Z,11.97
2017-08-11T05:40:17.862Z,10.60
2017-08-11T05:42:46.333Z,9.53
2017-08-11T05:45:14.738Z,10.43
2017-08-11T05:47:43.191Z,12.80
2017-08-11T05:50:11.656Z,11.33
2017-08-11T05:52:40.126Z,9.70
2017-08-11T05:55:08.534Z,12.10
2017-08-11T05:57:37.015Z,11.43
2017-08-11T06:00:05.470Z,9.07
2017-08-11T06:02:33.890Z,11.30
2017-08-11T06:05:02.392Z,10.93
2017-08-11T06:07:30.912Z,10.77
2017-08-11T06:09:59.447Z,10.00
2017-08-11T06:12:27.937Z,11.13
2017-08-11T06:14:56.691Z,11.27
2017-08-11T06:17:25.144Z,13.57
2017-08-11T06:19:53.696Z,11.60
2017-08-11T06:22:22.256Z,10.67
2017-08-11T06:24:50.984Z,8.10
2017-08-11T06:27:19.791Z,8.20
2017-08-11T06:29:48.276Z,9.00
2017-08-11T06:32:17.021Z,7.70
2017-08-11T06:34:45.505Z,8.50
2017-08-11T06:37:14.029Z,9.83
2017-08-11T06:39:42.475Z,8.10
2017-08-11T06:42:10.956Z,8.47
2017-08-11T06:44:39.448Z,8.20
2017-08-11T06:47:07.926Z,7.30
2017-08-11T06:49:36.393Z,7.30
2017-08-11T06:52:04.925Z,8.20
2017-08-11T06:54:33.392Z,7.50
2017-08-11T06:57:01.868Z,8.13
2017-08-11T06:59:30.371Z,8.20
2017-08-11T07:01:58.855Z,7.70
2017-08-11T07:04:27.323Z,7.70
2017-08-11T07:06:55.852Z,8.57
2017-08-11T07:09:24.365Z,8.77
2017-08-11T07:11:53.074Z,8.80
2017-08-11T07:14:21.793Z,9.87
2017-08-11T07:16:50.270Z,9.10
2017-08-11T07:19:18.828Z,9.30
2017-08-11T07:21:47.311Z,8.27
2017-08-11T07:24:16.553Z,7.23
2017-08-11T07:26:45.060Z,7.80
2017-08-11T07:29:13.597Z,10.83
2017-08-11T07:31:42.366Z,9.20
2017-08-11T07:34:11.612Z,7.97
2017-08-11T07:36:40.362Z,8.43
2017-08-11T07:39:08.848Z,8.30
2017-08-11T07:41:37.325Z,8.03
2017-08-11T07:44:05.842Z,7.30
2017-08-11T07:46:34.357Z,7.63
2017-08-11T07:49:02.519Z,7.37
2017-08-11T07:51:31.035Z,8.50
2017-08-11T07:53:59.546Z,8.23
2017-08-11T07:56:28.019Z,8.90
2017-08-11T07:58:56.767Z,7.17
2017-08-11T08:01:25.244Z,8.20
2017-08-11T08:03:53.733Z,7.97
2017-08-11T08:06:22.246Z,6.80
2017-08-11T08:08:51.404Z,6.57
2017-08-11T08:11:19.890Z,5.83
2017-08-11T08:13:48.377Z,6.33
2017-08-11T08:16:16.848Z,6.50
2017-08-11T08:18:45.331Z,7.10
2017-08-11T08:21:13.837Z,5.93
2017-08-11T08:23:42.300Z,6.20
2017-08-11T08:26:10.795Z,5.67
2017-08-11T08:28:39.299Z,6.80
2017-08-11T08:31:07.779Z,6.07
2017-08-11T08:33:36.241Z,5.43
2017-08-11T08:36:04.750Z,6.67
2017-08-11T08:38:33.228Z,8.00
2017-08-11T08:41:01.686Z,7.40
2017-08-11T08:43:30.423Z,7.10
2017-08-11T08:45:59.168Z,7.20
2017-08-11T08:48:27.669Z,7.10
2017-08-11T08:50:56.193Z,7.80
2017-08-11T08:53:24.689Z,7.40
2017-08-11T08:55:53.216Z,8.07
2017-08-11T08:58:21.756Z,7.87
2017-08-11T09:00:50.258Z,8.27
2017-08-11T09:03:18.781Z,8.47
2017-08-11T09:05:47.305Z,10.07
2017-08-11T09:08:16.045Z,7.77
2017-08-11T09:10:44.801Z,8.20
2017-08-11T09:13:13.294Z,8.73
2017-08-11T09:15:41.668Z,8.40
2017-08-11T09:18:10.460Z,8.73
2017-08-11T09:20:38.981Z,8.70
2017-08-11T09:23:07.573Z,7.07
2017-08-11T09:25:47.015Z,9.13
2017-08-11T09:28:26.738Z,7.87
2017-08-11T09:31:06.568Z,7.87
2017-08-11T09:33:46.049Z,8.13
2017-08-11T09:36:37.569Z,7.80
2017-08-11T09:39:07.554Z,8.90
2017-08-11T09:41:36.055Z,8.80
2017-08-11T09:44:04.828Z,9.80
2017-08-11T09:46:33.303Z,8.40
2017-08-11T09:49:01.821Z,8.97
2017-08-11T09:51:30.567Z,8.80
2017-08-11T09:53:59.082Z,8.03
2017-08-11T09:56:27.572Z,9.10
2017-08-11T09:58:56.322Z,8.63
2017-08-11T10:01:24.883Z,8.80
2017-08-11T10:03:53.455Z,9.80
2017-08-11T10:06:21.949Z,9.90
2017-08-11T10:08:50.432Z,9.70
2017-08-11T10:11:18.957Z,9.20
2017-08-11T10:13:47.449Z,9.20
2017-08-11T10:16:16.214Z,10.33
2017-08-11T10:18:44.787Z,9.97
2017-08-11T10:21:13.294Z,10.17
2017-08-11T10:23:42.149Z,9.50
2017-08-11T10:26:10.848Z,8.00
2017-08-11T10:28:41.557Z,9.90
2017-08-11T10:31:10.285Z,10.30
2017-08-11T10:33:40.420Z,9.90
2017-08-11T10:36:08.880Z,10.30
2017-08-11T10:38:37.372Z,9.80
2017-08-11T10:41:07.017Z,10.80
2017-08-11T10:43:35.759Z,10.03
2017-08-11T10:46:05.894Z,8.87
2017-08-11T10:48:34.463Z,9.43
2017-08-11T10:51:03.492Z,9.60
2017-08-11T10:53:32.268Z,10.70
2017-08-11T10:56:00.749Z,10.83
2017-08-11T10:58:29.471Z,9.90
2017-08-11T11:00:57.897Z,10.13
2017-08-11T11:03:26.473Z,10.10
2017-08-11T11:05:55.347Z,11.10
2017-08-11T11:08:23.820Z,11.17
2017-08-11T11:10:52.623Z,10.00
2017-08-11T11:13:20.549Z,11.30
2017-08-11T11:15:50.651Z,9.97
2017-08-11T11:18:19.165Z,11.60
2017-08-11T11:23:27.924Z,9.50
2017-08-11T11:31:24.182Z,9.73
2017-08-11T11:33:59.851Z,10.23
2017-08-11T11:36:29.259Z,10.00
2017-08-11T11:38:58.080Z,7.93
2017-08-11T11:41:26.789Z,8.57
2017-08-11T11:43:55.984Z,9.30
2017-08-11T11:46:25.067Z,9.50
2017-08-11T11:48:54.379Z,8.30
2017-08-11T11:51:23.164Z,9.77
2017-08-11T11:53:51.939Z,10.73
2017-08-11T11:58:56.670Z,8.50
2017-08-11T12:01:25.414Z,8.73
2017-08-11T12:03:54.814Z,10.10
2017-08-11T12:06:23.351Z,9.20
2017-08-11T12:08:52.037Z,10.00
2017-08-11T12:11:20.862Z,9.70
2017-08-11T12:13:49.382Z,9.93
2017-08-11T12:16:18.842Z,9.67
2017-08-11T12:18:47.335Z,9.57
2017-08-11T12:21:15.881Z,9.60
2017-08-11T12:23:44.581Z,8.90
2017-08-11T12:26:13.070Z,9.40
2017-08-11T12:28:41.633Z,9.27
2017-08-11T12:31:10.128Z,9.60
2017-08-11T12:33:38.609Z,11.60
2017-08-11T12:36:07.124Z,10.10
2017-08-11T12:38:35.617Z,10.13
2017-08-11T12:41:04.110Z,9.40
2017-08-11T12:43:32.640Z,10.27
2017-08-11T12:46:01.122Z,9.77
2017-08-11T12:48:29.616Z,10.23
2017-08-11T12:50:58.143Z,8.93
2017-08-11T12:53:26.649Z,9.33
2017-08-11T12:55:55.162Z,11.00
2017-08-11T12:58:23.668Z,8.70
2017-08-11T13:00:52.181Z,11.87
2017-08-11T13:03:20.674Z,8.10
2017-08-11T13:05:49.390Z,8.87
2017-08-11T13:08:17.949Z,9.90
2017-08-11T13:10:46.726Z,9.77
2017-08-11T13:13:15.453Z,9.80
2017-08-11T13:15:43.981Z,10.37
2017-08-11T13:18:12.725Z,10.53
2017-08-11T13:20:41.265Z,9.73
2017-08-11T13:23:09.814Z,10.63
2017-08-11T13:25:38.312Z,10.40
2017-08-11T13:28:06.816Z,10.30
2017-08-11T13:30:35.360Z,10.07
2017-08-11T13:33:03.894Z,10.30
2017-08-11T13:35:32.600Z,9.30
2017-08-11T13:38:01.129Z,9.00
2017-08-11T13:40:29.629Z,9.50
2017-08-11T13:42:58.141Z,9.70
2017-08-11T13:45:26.574Z,9.27
2017-08-11T13:47:55.270Z,9.97
2017-08-11T13:50:23.796Z,8.93
2017-08-11T13:52:52.284Z,8.93
2017-08-11T13:55:20.998Z,9.67
2017-08-11T13:57:49.765Z,9.00
2017-08-11T14:00:18.491Z,10.10
2017-08-11T14:02:47.013Z,9.80
2017-08-11T14:05:16.274Z,9.27
2017-08-11T14:07:44.846Z,9.87
2017-08-11T14:10:13.366Z,9.77
2017-08-11T14:12:41.860Z,9.17
2017-08-11T14:15:10.357Z,9.63
2017-08-11T14:17:38.850Z,8.97
2017-08-11T14:20:07.380Z,9.83
2017-08-11T14:22:35.881Z,8.33
2017-08-11T14:25:04.355Z,8.73
2017-08-11T14:27:33.070Z,8.77
2017-08-11T14:30:01.544Z,8.73
2017-08-11T14:32:30.010Z,8.57
2017-08-11T14:34:58.564Z,8.23
2017-08-11T14:37:27.054Z,9.00
2017-08-11T14:39:55.548Z,9.27
2017-08-11T14:42:24.065Z,9.33
2017-08-11T14:44:52.545Z,7.97
2017-08-11T14:47:21.016Z,8.03
2017-08-11T14:49:49.521Z,7.70
2017-08-11T14:52:18.245Z,7.53
2017-08-11T14:54:48.014Z,8.70
2017-08-11T14:57:17.414Z,9.30
2017-08-11T15:03:13.446Z,8.70
2017-08-11T15:05:43.146Z,7.53
2017-08-11T15:08:11.691Z,7.60
2017-08-11T15:10:40.278Z,7.33
2017-08-11T15:13:08.750Z,7.00
2017-08-11T15:15:37.220Z,6.90
2017-08-11T15:18:05.831Z,7.27
2017-08-11T15:20:34.377Z,6.97
2017-08-11T15:23:02.906Z,7.17
2017-08-11T15:25:33.105Z,7.00
2017-08-11T15:28:01.657Z,7.63
2017-08-11T15:30:30.851Z,7.30
2017-08-11T15:32:59.386Z,7.40
2017-08-11T15:35:27.871Z,8.53
2017-08-11T15:37:56.386Z,7.73
2017-08-11T15:40:24.967Z,7.83
2017-08-11T15:42:53.440Z,7.60
2017-08-11T15:45:21.946Z,7.10
2017-08-11T15:47:50.490Z,7.77
2017-08-11T15:50:19.029Z,7.70
2017-08-11T15:52:47.494Z,7.90
2017-08-11T15:55:16.083Z,9.13
2017-08-11T15:57:44.630Z,7.67
2017-08-11T16:00:13.128Z,8.90
2017-08-11T16:02:41.657Z,8.27
2017-08-11T16:05:10.142Z,7.57
2017-08-11T16:07:38.689Z,7.47
2017-08-11T16:10:07.197Z,7.80
2017-08-11T16:12:35.687Z,7.10
2017-08-11T16:15:04.019Z,6.20
2017-08-11T16:17:32.544Z,6.07
2017-08-11T16:20:01.027Z,7.00
2017-08-11T16:22:29.536Z,6.53
2017-08-11T16:24:57.883Z,6.60
2017-08-11T16:27:26.415Z,7.50
2017-08-11T16:29:54.923Z,6.63
2017-08-11T16:32:23.490Z,6.80
2017-08-11T16:34:52.040Z,8.00
2017-08-11T16:37:20.535Z,6.90
2017-08-11T16:39:49.083Z,6.57
2017-08-11T16:42:17.600Z,7.50
2017-08-11T16:44:46.117Z,6.67
2017-08-11T16:47:14.635Z,7.27
2017-08-11T16:49:43.099Z,8.00
2017-08-11T16:52:11.595Z,7.77
2017-08-11T16:54:40.069Z,8.20
2017-08-11T16:57:08.560Z,9.23
2017-08-11T16:59:37.012Z,9.10
2017-08-11T17:02:05.522Z,8.90
2017-08-11T17:04:33.978Z,8.00
2017-08-11T17:07:02.512Z,7.23
2017-08-11T17:09:31.036Z,7.17
2017-08-11T17:11:59.519Z,7.60
2017-08-11T17:14:28.064Z,7.90
2017-08-11T17:16:56.543Z,11.80
2017-08-11T17:19:25.068Z,11.23
2017-08-11T17:21:53.600Z,10.00
2017-08-11T17:24:22.123Z,9.13
2017-08-11T17:26:50.634Z,9.53
2017-08-11T17:29:19.141Z,9.10
2017-08-11T17:31:47.630Z,8.13
2017-08-11T17:34:16.120Z,7.80
2017-08-11T17:36:44.655Z,8.47
2017-08-11T17:39:13.217Z,9.00
2017-08-11T17:41:41.735Z,8.93
2017-08-11T17:44:10.288Z,8.30
2017-08-11T17:46:39.562Z,8.37
2017-08-11T17:49:08.052Z,8.73
2017-08-11T17:51:36.559Z,8.00
2017-08-11T17:54:05.099Z,8.27
2017-08-11T17:56:33.611Z,8.03
2017-08-11T17:59:02.116Z,7.80
2017-08-11T18:01:30.615Z,8.47
2017-08-11T18:03:59.170Z,7.83
2017-08-11T18:06:27.654Z,7.70
2017-08-11T18:08:56.179Z,7.80
2017-08-11T18:11:24.707Z,9.17
2017-08-11T18:13:53.153Z,8.60
2017-08-11T18:16:21.623Z,7.70
2017-08-11T18:18:50.077Z,7.50
2017-08-11T18:21:18.537Z,9.10
2017-08-11T18:23:47.026Z,8.20
2017-08-11T18:26:15.467Z,8.00
2017-08-11T18:28:43.926Z,7.47
2017-08-11T18:31:12.347Z,7.60
2017-08-11T18:33:40.830Z,8.80
2017-08-11T18:36:09.274Z,8.70
2017-08-11T18:38:37.720Z,8.27
2017-08-11T18:41:06.165Z,8.37
2017-08-11T18:43:34.609Z,7.73
2017-08-11T18:46:03.122Z,8.57
2017-08-11T18:48:31.612Z,8.47
2017-08-11T18:51:00.077Z,9.57
2017-08-11T18:53:28.513Z,8.20
2017-08-11T18:55:57.021Z,9.20
2017-08-11T18:58:25.433Z,8.40
2017-08-11T19:00:53.842Z,9.07
2017-08-11T19:03:22.309Z,9.43
2017-08-11T19:05:50.757Z,9.17
2017-08-11T19:08:19.231Z,9.33
2017-08-11T19:10:47.773Z,8.73
2017-08-11T19:13:50.579Z,9.03
2017-08-11T19:16:19.043Z,8.10
2017-08-11T19:21:28.183Z,6.90
2017-08-11T19:23:56.643Z,8.23
2017-08-11T19:26:25.230Z,8.63
2017-08-11T19:28:53.720Z,6.67
2017-08-11T19:31:22.163Z,7.17
2017-08-11T19:33:50.641Z,8.23
2017-08-11T19:36:19.133Z,8.97
2017-08-11T19:38:47.671Z,8.50
2017-08-11T19:41:16.227Z,7.50
2017-08-11T19:43:44.685Z,8.70
2017-08-11T19:46:13.151Z,7.70
2017-08-11T19:48:41.863Z,8.67
2017-08-11T19:51:10.365Z,8.57
2017-08-11T19:53:39.198Z,8.87
2017-08-11T19:56:08.496Z,7.93
2017-08-11T19:58:37.012Z,8.80
2017-08-11T20:01:10.178Z,9.50
2017-08-11T20:03:38.947Z,9.80
2017-08-11T20:06:08.498Z,9.97
2017-08-11T20:08:37.018Z,10.40
2017-08-11T20:11:05.848Z,9.60
2017-08-11T20:13:34.349Z,10.23
2017-08-11T20:16:02.887Z,10.90
2017-08-11T20:18:31.386Z,9.17
2017-08-11T20:20:59.874Z,9.83
2017-08-11T20:23:28.385Z,8.17
2017-08-11T20:25:56.902Z,8.30
2017-08-11T20:28:25.494Z,8.30
2017-08-11T20:30:54.038Z,6.80
2017-08-11T20:33:25.055Z,7.40
2017-08-11T20:35:53.635Z,6.13
2017-08-11T20:38:22.845Z,6.67
2017-08-11T20:40:52.515Z,5.73
2017-08-11T20:43:23.587Z,6.00
2017-08-11T20:46:07.074Z,5.27
2017-08-11T20:48:35.603Z,5.37
2017-08-11T20:51:04.107Z,5.20
2017-08-11T20:53:32.561Z,4.20
2017-08-11T20:56:01.018Z,5.87
2017-08-11T20:58:29.487Z,4.30
2017-08-11T21:00:57.990Z,4.27
2017-08-11T21:03:26.728Z,4.93
2017-08-11T21:05:55.374Z,5.10
2017-08-11T21:08:23.783Z,4.60
2017-08-11T21:13:28.826Z,4.90
2017-08-11T21:16:15.189Z,4.43
2017-08-11T21:24:58.824Z,4.47
2017-08-11T21:27:27.395Z,3.90
2017-08-11T21:30:22.971Z,3.83
2017-08-11T21:32:53.255Z,3.77
2017-08-11T21:35:21.807Z,3.70
2017-08-11T21:37:50.297Z,3.60
2017-08-11T21:40:18.818Z,4.40
2017-08-11T21:42:48.230Z,4.00
2017-08-11T21:45:16.801Z,3.87
2017-08-11T21:47:45.369Z,3.03
2017-08-11T21:50:20.725Z,4.30
2017-08-11T21:52:49.261Z,3.60
2017-08-11T21:55:26.809Z,3.50
2017-08-11T21:57:55.428Z,3.30
2017-08-11T22:00:24.030Z,4.03
2017-08-11T22:02:57.018Z,3.37
2017-08-11T22:05:30.543Z,3.33
2017-08-11T22:10:59.317Z,4.03
2017-08-11T22:13:28.460Z,3.53
2017-08-11T22:15:58.248Z,4.23
2017-08-11T22:18:38.343Z,3.80
2017-08-11T22:21:06.874Z,3.73
2017-08-11T22:23:36.938Z,4.20
2017-08-11T22:26:05.774Z,3.80
2017-08-11T22:28:35.454Z,4.20
2017-08-11T22:31:04.010Z,3.20
2017-08-11T22:36:10.707Z,3.20
2017-08-11T22:38:42.891Z,3.90
2017-08-11T22:41:12.303Z,2.93
2017-08-11T22:43:40.841Z,3.70
2017-08-11T22:46:09.340Z,3.97
2017-08-11T22:48:39.361Z,2.70
2017-08-11T22:53:54.458Z,3.33
2017-08-11T22:56:27.554Z,3.90
2017-08-11T22:58:56.214Z,2.70
2017-08-11T23:01:29.430Z,3.90
2017-08-11T23:04:14.349Z,3.33
2017-08-11T23:06:45.539Z,3.07
2017-08-11T23:12:31.736Z,2.60
2017-08-11T23:15:01.814Z,3.00
2017-08-11T23:17:33.347Z,2.87
2017-08-11T23:20:03.781Z,3.10
2017-08-11T23:22:32.409Z,2.63
2017-08-11T23:25:00.913Z,3.00
2017-08-11T23:27:30.218Z,2.43
2017-08-11T23:29:59.694Z,2.63
2017-08-11T23:32:29.719Z,2.97
2017-08-11T23:34:59.103Z,2.40
2017-08-11T23:37:30.686Z,2.10
2017-08-11T23:39:59.416Z,2.47
2017-08-11T23:47:40.667Z,2.40
2017-08-11T23:50:13.298Z,2.10
2017-08-11T23:52:45.678Z,2.40
2017-08-11T23:55:18.158Z,1.83
2017-08-11T23:57:46.741Z,1.93
